Terminal Aerodrome Forecast
Issued by NWS Pittsburgh, PA

Current Version | Previous Version | Graphics & Text | Print | Product List | Glossary On
Versions: 1 2 3 4 5 6 7 8 9 10 11 12 13 14 15 16 17 18 19 20 21 22 23 24 25 26 27 28 29 30 31 32 33 34
000
FTUS41 KPBZ 221349 AAA
TAFPIT
TAF AMD
KPIT 221349Z 2214/2318 30010KT 6SM -SHRA BKN008 OVC025
     FM221530 26016G28KT P6SM BKN035
     FM230000 28010KT P6SM BKN050
     FM231500 28010G20KT P6SM BKN050=

USA.gov is the U.S. government's official web portal to all federal, state and local government web resources and services.